x

Buoy E01 - Central Maine Shelf (44032) Wave Buoy

8:04pm - Sun 1st Feb 2015 All times are EST. -5 hours from GMT.

  • Sig Wave height 3.3ft
  • Peak Period 4s
  • Wind
    25mph, 31mph gusts
  • Sea Temp 39°f
  • Air Temp 18°f
  • Sea Pressure 1020.5mb
  • Buoy E01 - Central Maine Shelf
  • Buoy E01 - Central Maine Shelf

More Historic Weather Station data

Upgrade to MSW Pro to gain access to the past 30 days of data for over 8000 Wavebouys and Weather Stations around the globe.

Join Pro

Comparision Forecast

View Surf forecast
   
Sun 02/01 8:04pm 3.5ft 4s 25 31 mph 1020.5mb 39f 18f
7:04pm 3.5ft 4s 20 27 mph 1019.5mb 39f 19f
6:04pm 3.5ft 4s 18 22 mph 1019.4mb 39f 20f
5:04pm 3.5ft 4s 18 25 mph 1018.4mb 39f 21f
4:04pm 4ft 5s 20 27 mph 1017.8mb 39f 22f
3:04pm 3.5ft 5s 20 27 mph 1016.8mb 39f 22f
2:04pm 3.5ft 5s 25 29 mph 1015.8mb 39f 22f
1:04pm 4.5ft 4s 20 27 mph 1016mb 40f 20f
12:04pm 3.5ft 4s 25 31 mph 1016mb 40f 20f
11:04am 3.5ft 4s 22 27 mph 1016.5mb 40f 19f
10:04am 3.5ft 4s 22 31 mph - 40f 19f
9:04am 3.5ft 4s 25 29 mph - 40f 20f
8:04am 3ft 4s 18 25 mph 998.7mb 40f 17f
7:04am 3.5ft 4s 25 29 mph 996.5mb 40f 18f
6:04am 3.5ft 4s 22 29 mph 994.6mb 40f 16f
5:04am 4ft 5s 25 31 mph 994.6mb 39f 17f
4:04am 3.5ft 4s 22 27 mph 993.7mb 40f 16f
3:04am 4ft 4s 22 29 mph 993.2mb 40f 16f
2:04am 5.5ft 5s 29 36 mph 992.6mb 40f 15f
1:04am 4.5ft 4s 27 31 mph 993.1mb 40f 16f
12:04am 5ft 5s 29 36 mph 992.1mb 41f 16f
Sat 01/31 11:04pm 5.5ft 5s 29 38 mph 990.3mb 41f 14f
10:04pm 6ft 5s 31 38 mph 990.4mb 41f 15f
9:04pm 5ft 5s 29 36 mph 989.8mb 41f 14f
8:04pm 6.5ft 5s 31 40 mph 990.5mb 40f 15f
7:04pm 6.5ft 5s 27 34 mph 992.6mb 40f 16f
5:04pm 6ft 5s 25 34 mph 997.6mb 40f 19f
4:04pm 5.5ft 5s 27 34 mph 1001mb 40f 20f
3:04pm 5ft 5s 27 36 mph 999.6mb 40f 20f
2:04pm 5.5ft 5s 29 34 mph 999.2mb 40f 20f
1:04pm 5ft 5s 29 34 mph 999.2mb 40f 20f
12:04pm 6ft 5s 29 40 mph 999.2mb 41f 20f
11:04am 7ft 5s 34 40 mph 999.5mb 40f 20f
10:04am 7.5ft 5s 36 54 mph 999.4mb 41f 21f
9:04am 6ft 5s 34 45 mph 999.3mb 40f 21f
8:04am 7ft 5s 38 49 mph 1000.4mb 40f 21f
7:04am 8ft 5s 38 45 mph 1000.6mb 41f 21f
6:04am 7ft 5s 36 45 mph 1001.5mb 41f 21f
5:04am 7ft 5s 38 45 mph - 41f 22f
4:04am 6.5ft 5s 38 47 mph 1001.5mb 40f 23f
3:04am 8ft 5s 38 47 mph 1000.2mb 40f 24f
2:04am 7ft 5s 38 45 mph 1000.9mb 40f 24f
1:04am 6ft 5s 36 45 mph 1000.7mb 41f 26f
12:04am 5.5ft 5s 36 45 mph 1000.4mb 41f 28f
Fri 01/30 11:04pm 5ft 5s 31 43 mph 1000.6mb 40f 32f
10:04pm 4ft 4s 29 36 mph 1000.7mb 40f 32f
9:04pm 4ft 4s 27 31 mph 1001.8mb 40f 32f
8:04pm 3.5ft 5s 22 25 mph 1002.4mb 40f 32f
7:04pm 4ft 5s 16 20 mph 1002.9mb 40f 33f
6:04pm 4.5ft 6s 7 9 mph 1003.5mb 40f 36f
5:04pm 5.5ft 6s 2 4 mph 1003.7mb 40f 36f
4:04pm 5ft 5s 2
mph
1004.3mb 40f 36f
3:04pm 5ft 5s 4
mph
1004.7mb 40f 36f
2:04pm 5ft 5s 11 13 mph 1005.2mb 41f 38f
1:04pm 5ft 5s 18 22 mph 1005.4mb 41f 40f
12:04pm 4.5ft 5s 20 22 mph 1006.5mb 41f 39f
11:04am 4ft 5s 20 25 mph 1007.7mb 41f 39f
10:04am 3.5ft 5s 20 25 mph 1008.5mb 41f 40f
9:04am  -   -  18 22 mph 1009.1mb 41f 40f
8:04am 3.5ft 4s 18 20 mph 1009.7mb 41f 39f
7:04am 2.5ft 4s 18 20 mph 1010.5mb 41f 35f
6:04am 2.5ft 4s 13 16 mph 1011.4mb 41f 31f
5:04am 2.5ft 4s 13 18 mph 1012.4mb 41f 31f
4:04am 2.5ft 4s 9 13 mph 1013mb 41f 30f
3:04am  -   -  13 16 mph 1014.5mb 41f 30f
2:04am 4ft 11s 13 16 mph 1015.5mb 40f 29f
1:04am 3.5ft 11s 13 18 mph 1016.5mb 40f 29f
12:04am 3.5ft 11s 11 13 mph 1017.3mb 40f 28f
Thu 01/29 11:04pm 3ft 11s 11 13 mph 1017.8mb 40f 28f
10:04pm 3ft 11s 9 11 mph 1018.3mb 41f 28f
9:04pm 3ft 11s 7
mph
1019.4mb 41f 28f
8:04pm 2.5ft 11s 7 9 mph 1020mb 41f 28f
7:04pm 2.5ft 11s 7 13 mph 1020.6mb 41f 28f
6:04pm 2.5ft 11s 4 7 mph 1021.1mb 41f 29f
5:04pm 2.5ft 11s 2
mph
1021.3mb 41f 29f
4:04pm 2ft 11s 2 4 mph 1021.7mb 40f 28f
3:04pm 2ft 11s 2 4 mph 1022.3mb 40f 28f
2:04pm 2.5ft 11s 4 7 mph 1022.8mb 40f 27f
1:04pm 2.5ft 11s 4 7 mph 1023.5mb 41f 26f
12:04pm 2.5ft 11s 7 9 mph 1024.5mb 40f 25f
11:04am 2.5ft 11s 7 9 mph 1025.5mb 40f 24f
10:04am 3ft 11s 4 9 mph 1025.9mb 40f 23f
9:04am 2.5ft 11s 9 11 mph 1025.6mb 40f 21f
8:04am 2.5ft 11s 16 18 mph 1024.9mb 40f 20f
7:04am 3ft 11s 11 16 mph 1024.8mb 40f 19f
6:04am 4.5ft 11s 18 22 mph 1024.4mb 40f 20f
5:04am 3ft 11s 13 16 mph 1023.5mb 40f 19f
4:04am 3.5ft 11s 13 18 mph 1023.4mb 40f 19f
3:04am 3.5ft 11s 13 18 mph 1023.8mb 40f 19f